createdAt,value
2018-07-19T00:01:28.171Z,4.50
2018-07-19T00:03:56.499Z,5.40
2018-07-19T00:06:24.824Z,6.00
2018-07-19T00:08:53.160Z,4.67
2018-07-19T00:11:21.515Z,5.03
2018-07-19T00:13:49.835Z,5.70
2018-07-19T00:16:18.240Z,5.57
2018-07-19T00:18:47.495Z,5.47
2018-07-19T00:21:15.828Z,5.10
2018-07-19T00:23:44.148Z,5.50
2018-07-19T00:26:13.024Z,4.80
2018-07-19T00:28:41.339Z,6.07
2018-07-19T00:31:09.706Z,5.77
2018-07-19T00:33:38.657Z,5.43
2018-07-19T00:36:07.179Z,5.73
2018-07-19T00:38:35.589Z,6.47
2018-07-19T00:41:04.000Z,5.60
2018-07-19T00:43:33.642Z,5.53
2018-07-19T00:46:01.992Z,6.13
2018-07-19T00:48:30.289Z,6.90
2018-07-19T00:50:58.623Z,5.90
2018-07-19T00:53:26.948Z,6.83
2018-07-19T00:55:55.668Z,6.43
2018-07-19T00:58:24.039Z,6.83
2018-07-19T01:00:52.348Z,6.60
2018-07-19T01:03:20.659Z,6.57
2018-07-19T01:05:48.966Z,5.30
2018-07-19T01:08:17.299Z,5.63
2018-07-19T01:10:45.625Z,5.10
2018-07-19T01:13:13.947Z,5.00
2018-07-19T01:15:42.266Z,5.30
2018-07-19T01:18:10.596Z,5.97
2018-07-19T01:20:39.033Z,6.40
2018-07-19T01:23:07.374Z,6.03
2018-07-19T01:25:36.256Z,6.80
2018-07-19T01:28:04.588Z,6.20
2018-07-19T01:30:32.920Z,6.53
2018-07-19T01:33:01.215Z,5.97
2018-07-19T01:35:29.560Z,7.57
2018-07-19T01:37:57.876Z,6.77
2018-07-19T01:40:26.232Z,5.87
2018-07-19T01:42:54.533Z,5.43
2018-07-19T01:45:22.852Z,5.27
2018-07-19T01:47:51.175Z,5.60
2018-07-19T01:50:19.548Z,5.83
2018-07-19T01:52:47.867Z,5.27
2018-07-19T01:55:16.187Z,5.70
2018-07-19T01:57:45.220Z,5.20
2018-07-19T02:00:13.596Z,5.57
2018-07-19T02:02:41.869Z,5.10
2018-07-19T02:05:10.226Z,4.70
2018-07-19T02:07:38.511Z,4.93
2018-07-19T02:10:06.908Z,5.10
2018-07-19T02:12:35.228Z,4.97
2018-07-19T02:15:04.127Z,5.40
2018-07-19T02:17:32.443Z,4.87
2018-07-19T02:20:00.771Z,5.53
2018-07-19T02:22:29.100Z,5.30
2018-07-19T02:24:57.447Z,5.40
2018-07-19T02:27:25.764Z,4.80
2018-07-19T02:29:54.091Z,5.30
2018-07-19T02:32:22.396Z,6.30
2018-07-19T02:34:50.728Z,7.27
2018-07-19T02:37:19.036Z,7.33
2018-07-19T02:39:47.360Z,6.70
2018-07-19T02:42:15.683Z,7.17
2018-07-19T02:44:43.987Z,8.20
2018-07-19T02:47:12.292Z,6.80
2018-07-19T02:49:40.628Z,6.73
2018-07-19T02:52:08.940Z,6.40
2018-07-19T02:54:37.254Z,6.80
2018-07-19T02:57:05.583Z,6.67
2018-07-19T02:59:33.881Z,6.30
2018-07-19T03:02:02.212Z,7.07
2018-07-19T03:04:30.511Z,5.80
2018-07-19T03:06:58.824Z,7.10
2018-07-19T03:09:27.143Z,7.30
2018-07-19T03:11:55.459Z,6.67
2018-07-19T03:14:24.771Z,6.60
2018-07-19T03:16:53.111Z,6.60
2018-07-19T03:19:21.439Z,6.70
2018-07-19T03:21:54.212Z,7.87
2018-07-19T03:24:22.522Z,7.23
2018-07-19T03:26:50.827Z,7.93
2018-07-19T03:29:19.172Z,7.63
2018-07-19T03:31:47.509Z,7.17
2018-07-19T03:34:15.808Z,7.40
2018-07-19T03:36:44.119Z,6.30
2018-07-19T03:39:12.435Z,5.93
2018-07-19T03:41:40.776Z,6.17
2018-07-19T03:44:09.615Z,6.57
2018-07-19T03:46:37.963Z,6.87
2018-07-19T03:49:06.307Z,7.10
2018-07-19T03:51:34.640Z,7.57
2018-07-19T03:54:02.984Z,7.40
2018-07-19T03:56:31.299Z,7.20
2018-07-19T03:58:59.608Z,7.20
2018-07-19T04:01:28.620Z,7.00
2018-07-19T04:03:56.954Z,7.33
2018-07-19T04:06:25.259Z,6.87
2018-07-19T04:08:53.576Z,7.00
2018-07-19T04:11:21.880Z,6.40
2018-07-19T04:13:50.220Z,6.33
2018-07-19T04:16:19.595Z,6.80
2018-07-19T04:18:47.933Z,6.10
2018-07-19T04:21:16.922Z,6.30
2018-07-19T04:23:45.259Z,7.00
2018-07-19T04:26:13.612Z,7.10
2018-07-19T04:28:41.980Z,7.17
2018-07-19T04:31:10.300Z,6.80
2018-07-19T04:33:38.647Z,5.57
2018-07-19T04:36:07.173Z,6.27
2018-07-19T04:38:35.999Z,5.80
2018-07-19T04:41:04.367Z,6.40
2018-07-19T04:43:33.896Z,6.90
2018-07-19T04:46:02.269Z,6.80
2018-07-19T04:48:30.585Z,6.10
2018-07-19T04:50:58.927Z,6.63
2018-07-19T04:53:27.475Z,6.97
2018-07-19T04:55:55.779Z,6.43
2018-07-19T04:58:24.097Z,8.97
2018-07-19T05:00:52.796Z,7.60
2018-07-19T05:03:21.392Z,8.50
2018-07-19T05:05:49.899Z,8.57
2018-07-19T05:08:18.291Z,7.80
2018-07-19T05:10:46.720Z,7.40
2018-07-19T05:13:15.269Z,9.00
2018-07-19T05:15:43.983Z,8.33
2018-07-19T05:18:12.443Z,8.83
2018-07-19T05:20:40.798Z,7.87
2018-07-19T05:23:09.146Z,8.57
2018-07-19T05:25:37.475Z,8.17
2018-07-19T05:28:05.810Z,8.27
2018-07-19T05:30:34.351Z,8.87
2018-07-19T05:33:02.672Z,9.03
2018-07-19T05:35:32.304Z,9.00
2018-07-19T05:38:00.668Z,7.77
2018-07-19T05:40:28.987Z,7.70
2018-07-19T05:42:57.372Z,8.43
2018-07-19T05:45:25.747Z,9.23
2018-07-19T05:47:54.069Z,7.50
2018-07-19T05:50:22.416Z,8.03
2018-07-19T05:52:50.760Z,8.23
2018-07-19T05:55:19.075Z,9.43
2018-07-19T05:57:47.516Z,7.80
2018-07-19T06:00:15.875Z,7.87
2018-07-19T06:02:44.256Z,7.93
2018-07-19T06:05:12.590Z,8.60
2018-07-19T06:07:40.927Z,8.13
2018-07-19T06:10:09.267Z,9.70
2018-07-19T06:12:37.603Z,8.30
2018-07-19T06:15:07.060Z,7.90
2018-07-19T06:17:36.135Z,6.97
2018-07-19T06:20:04.644Z,8.90
2018-07-19T06:22:33.055Z,8.10
2018-07-19T06:25:01.738Z,8.17
2018-07-19T06:27:30.249Z,9.10
2018-07-19T06:29:58.613Z,7.40
2018-07-19T06:32:26.925Z,7.50
2018-07-19T06:34:56.377Z,8.27
2018-07-19T06:37:24.824Z,7.70
2018-07-19T06:39:53.195Z,8.00
2018-07-19T06:42:21.548Z,7.63
2018-07-19T06:44:49.856Z,7.30
2018-07-19T06:47:18.161Z,8.07
2018-07-19T06:49:46.507Z,8.13
2018-07-19T06:52:14.995Z,7.30
2018-07-19T06:54:43.308Z,8.07
2018-07-19T06:57:11.621Z,7.00
2018-07-19T06:59:40.003Z,8.73
2018-07-19T07:02:08.956Z,8.43
2018-07-19T07:04:37.636Z,7.30
2018-07-19T07:07:06.232Z,6.97
2018-07-19T07:09:34.561Z,7.40
2018-07-19T07:12:02.880Z,7.90
2018-07-19T07:14:31.219Z,6.80
2018-07-19T07:16:59.548Z,7.10
2018-07-19T07:19:27.888Z,7.00
2018-07-19T07:21:56.257Z,7.30
2018-07-19T07:24:24.580Z,6.97
2018-07-19T07:26:52.891Z,7.77
2018-07-19T07:29:21.703Z,7.10
2018-07-19T07:31:50.024Z,6.70
2018-07-19T07:34:18.373Z,6.87
2018-07-19T07:36:46.693Z,7.03
2018-07-19T07:39:15.066Z,6.87
2018-07-19T07:41:43.455Z,6.50
2018-07-19T07:44:11.810Z,6.63
2018-07-19T07:46:40.148Z,7.10
2018-07-19T07:49:08.443Z,6.43
2018-07-19T07:51:36.792Z,6.87
2018-07-19T07:54:05.251Z,7.67
2018-07-19T07:56:34.540Z,6.47
2018-07-19T07:59:02.868Z,7.40
2018-07-19T08:01:31.199Z,7.43
2018-07-19T08:03:59.524Z,6.70
2018-07-19T08:06:27.835Z,5.83
2018-07-19T08:08:56.221Z,5.43
2018-07-19T08:11:25.043Z,5.87
2018-07-19T08:13:53.371Z,6.33
2018-07-19T08:16:21.856Z,6.67
2018-07-19T08:18:50.203Z,6.60
2018-07-19T08:21:18.647Z,6.30
2018-07-19T08:23:47.339Z,7.03
2018-07-19T08:26:15.903Z,7.10
2018-07-19T08:28:44.249Z,5.93
2018-07-19T08:31:12.645Z,4.97
2018-07-19T08:33:41.119Z,6.63
2018-07-19T08:36:09.544Z,5.57
2018-07-19T08:38:37.884Z,6.30
2018-07-19T08:41:06.255Z,6.20
2018-07-19T08:43:34.596Z,6.30
2018-07-19T08:46:02.912Z,5.70
2018-07-19T08:48:31.227Z,6.03
2018-07-19T08:50:59.565Z,5.50
2018-07-19T08:53:28.058Z,5.77
2018-07-19T08:55:56.504Z,5.80
2018-07-19T08:58:24.845Z,6.40
2018-07-19T09:00:55.680Z,5.20
2018-07-19T09:03:24.119Z,5.60
2018-07-19T09:05:52.467Z,8.00
2018-07-19T09:08:20.835Z,8.83
2018-07-19T09:10:49.648Z,8.20
2018-07-19T09:13:18.103Z,6.43
2018-07-19T09:15:46.439Z,4.60
2018-07-19T09:18:14.780Z,4.50
2018-07-19T09:20:43.105Z,4.00
2018-07-19T09:23:11.419Z,4.63
2018-07-19T09:25:39.732Z,3.60
2018-07-19T09:28:08.043Z,4.00
2018-07-19T09:30:36.371Z,12.43
2018-07-19T09:33:04.769Z,5.70
2018-07-19T09:35:33.137Z,3.37
2018-07-19T09:38:02.161Z,3.00
2018-07-19T09:40:30.483Z,3.20
2018-07-19T09:42:58.817Z,3.40
2018-07-19T09:45:27.159Z,3.70
2018-07-19T09:47:55.471Z,3.20
2018-07-19T09:50:24.055Z,3.50
2018-07-19T09:52:52.460Z,2.83
2018-07-19T09:55:20.849Z,2.90
2018-07-19T09:57:49.253Z,2.97
2018-07-19T10:00:22.927Z,2.63
2018-07-19T10:02:51.232Z,3.00
2018-07-19T10:05:20.281Z,3.30
2018-07-19T10:07:48.758Z,3.20
2018-07-19T10:10:17.197Z,3.87
2018-07-19T10:12:45.523Z,4.00
2018-07-19T10:15:13.852Z,3.10
2018-07-19T10:17:42.166Z,2.60
2018-07-19T10:20:10.496Z,2.90
2018-07-19T10:22:38.956Z,2.93
2018-07-19T10:25:07.359Z,3.30
2018-07-19T10:27:35.731Z,2.60
2018-07-19T10:30:04.964Z,3.27
2018-07-19T10:32:33.316Z,2.90
2018-07-19T10:35:02.189Z,2.40
2018-07-19T10:37:30.630Z,2.97
2018-07-19T10:39:58.919Z,2.63
2018-07-19T10:42:27.583Z,2.43
2018-07-19T10:44:56.240Z,3.30
2018-07-19T10:47:24.596Z,2.57
2018-07-19T10:49:53.151Z,2.90
2018-07-19T10:52:21.468Z,2.73
2018-07-19T10:54:50.376Z,2.90
2018-07-19T10:57:18.946Z,3.17
2018-07-19T10:59:47.247Z,3.20
2018-07-19T11:02:15.628Z,3.03
2018-07-19T11:04:43.992Z,3.13
2018-07-19T11:07:12.476Z,2.80
2018-07-19T11:09:40.860Z,3.10
2018-07-19T11:12:09.225Z,2.70
2018-07-19T11:14:37.547Z,2.57
2018-07-19T11:17:05.867Z,2.80
2018-07-19T11:19:34.181Z,3.30
2018-07-19T11:22:02.500Z,2.73
2018-07-19T11:24:30.819Z,2.60
2018-07-19T11:26:59.119Z,3.03
2018-07-19T11:29:27.468Z,2.60
2018-07-19T11:31:55.776Z,3.30
2018-07-19T11:34:24.087Z,2.43
2018-07-19T11:36:52.396Z,3.03
2018-07-19T11:39:20.723Z,2.90
2018-07-19T11:41:49.488Z,2.70
2018-07-19T11:44:17.827Z,2.70
2018-07-19T11:46:46.452Z,2.27
2018-07-19T11:49:14.774Z,2.50
2018-07-19T11:51:43.078Z,2.47
2018-07-19T11:54:11.381Z,2.80
2018-07-19T11:56:39.688Z,2.83
2018-07-19T11:59:08.015Z,2.80
2018-07-19T12:01:36.369Z,3.27
2018-07-19T12:04:04.746Z,2.57
2018-07-19T12:06:33.056Z,2.80
2018-07-19T12:09:01.397Z,2.03
2018-07-19T12:11:30.060Z,2.90
2018-07-19T12:13:58.395Z,2.77
2018-07-19T12:16:26.704Z,2.50
2018-07-19T12:18:55.125Z,2.23
2018-07-19T12:21:23.505Z,2.67
2018-07-19T12:23:51.827Z,2.53
2018-07-19T12:26:20.244Z,2.23
2018-07-19T12:28:48.556Z,2.20
2018-07-19T12:31:16.975Z,2.43
2018-07-19T12:33:45.232Z,2.10
2018-07-19T12:36:13.592Z,2.40
2018-07-19T12:38:41.891Z,2.90
2018-07-19T12:41:10.256Z,2.43
2018-07-19T12:43:38.574Z,1.90
2018-07-19T12:46:06.908Z,2.30
2018-07-19T12:48:35.216Z,2.13
2018-07-19T12:51:03.547Z,2.53
2018-07-19T12:53:31.882Z,2.13
2018-07-19T12:56:00.192Z,1.90
2018-07-19T12:58:28.511Z,2.37
2018-07-19T13:00:56.824Z,2.10
2018-07-19T13:03:26.140Z,2.30
2018-07-19T13:05:54.483Z,1.90
2018-07-19T13:08:22.792Z,2.50
2018-07-19T13:10:51.203Z,2.17
2018-07-19T13:13:20.148Z,2.07
2018-07-19T13:15:48.628Z,2.10
2018-07-19T13:18:16.966Z,2.57
2018-07-19T13:20:45.271Z,2.63
2018-07-19T13:23:13.585Z,2.07
2018-07-19T13:25:41.885Z,2.30
2018-07-19T13:28:10.287Z,2.60
2018-07-19T13:30:38.676Z,2.80
2018-07-19T13:33:06.996Z,2.37
2018-07-19T13:35:35.685Z,3.20
2018-07-19T13:38:04.052Z,2.50
2018-07-19T13:40:32.428Z,2.50
2018-07-19T13:43:01.476Z,2.70
2018-07-19T13:45:29.804Z,2.27
2018-07-19T13:47:58.276Z,2.33
2018-07-19T13:50:26.643Z,2.03
2018-07-19T13:53:06.086Z,1.60
2018-07-19T13:55:34.435Z,1.87
2018-07-19T13:58:03.332Z,1.83
2018-07-19T14:00:31.647Z,2.03
2018-07-19T14:02:59.961Z,2.23
2018-07-19T14:05:29.112Z,2.00
2018-07-19T14:07:57.456Z,1.80
2018-07-19T14:10:25.771Z,1.70
2018-07-19T14:12:54.106Z,1.87
2018-07-19T14:15:22.547Z,1.93
2018-07-19T14:17:50.856Z,2.03
2018-07-19T14:20:19.296Z,2.23
2018-07-19T14:22:47.667Z,2.40
2018-07-19T14:25:16.033Z,2.33
2018-07-19T14:27:44.339Z,1.93
2018-07-19T14:30:12.667Z,2.20
2018-07-19T14:32:41.004Z,1.80
2018-07-19T14:35:09.376Z,2.20
2018-07-19T14:37:37.703Z,1.87
2018-07-19T14:40:06.052Z,1.77
2018-07-19T14:42:34.362Z,2.00
2018-07-19T14:45:03.339Z,2.10
2018-07-19T14:47:31.632Z,2.63
2018-07-19T14:50:00.008Z,2.10
2018-07-19T14:52:28.319Z,1.93
2018-07-19T14:54:56.766Z,2.00
2018-07-19T14:57:25.097Z,1.80
2018-07-19T14:59:53.822Z,1.90
2018-07-19T15:02:22.737Z,1.87
2018-07-19T15:04:51.044Z,1.80
2018-07-19T15:07:19.906Z,2.30
2018-07-19T15:09:48.256Z,1.87
2018-07-19T15:12:16.616Z,1.80
2018-07-19T15:14:44.964Z,2.00
2018-07-19T15:17:13.275Z,1.97
2018-07-19T15:19:41.592Z,1.80
2018-07-19T15:22:09.908Z,1.93
2018-07-19T15:24:38.237Z,1.70
2018-07-19T15:27:06.588Z,1.83
2018-07-19T15:29:34.866Z,1.93
2018-07-19T15:32:03.368Z,1.83
2018-07-19T15:34:31.713Z,3.23
2018-07-19T15:37:00.044Z,1.27
2018-07-19T15:39:28.351Z,2.07
2018-07-19T15:41:56.747Z,2.10
2018-07-19T15:44:25.064Z,1.60
2018-07-19T15:46:53.383Z,1.67
2018-07-19T15:49:21.710Z,2.00
2018-07-19T15:51:50.105Z,1.90
2018-07-19T15:54:18.445Z,2.10
2018-07-19T15:56:46.760Z,2.07
2018-07-19T15:59:15.068Z,1.90
2018-07-19T16:01:43.376Z,2.13
2018-07-19T16:04:11.772Z,1.90
2018-07-19T16:06:41.368Z,1.87
2018-07-19T16:09:11.323Z,2.07
2018-07-19T16:11:40.467Z,2.43
2018-07-19T16:14:08.818Z,2.37
2018-07-19T16:16:37.559Z,2.40
2018-07-19T16:19:05.939Z,2.03
2018-07-19T16:21:34.291Z,2.23
2018-07-19T16:24:02.612Z,2.10
2018-07-19T16:26:30.919Z,2.47
2018-07-19T16:28:59.240Z,2.50
2018-07-19T16:31:27.542Z,2.10
2018-07-19T16:33:56.524Z,2.57
2018-07-19T16:36:24.911Z,2.60
2018-07-19T16:38:53.235Z,2.73
2018-07-19T16:41:21.576Z,3.03
2018-07-19T16:43:49.944Z,3.07
2018-07-19T16:46:18.286Z,3.07
2018-07-19T16:48:46.608Z,3.60
2018-07-19T16:51:14.925Z,4.90
2018-07-19T16:53:43.943Z,3.33
2018-07-19T16:56:12.271Z,2.70
2018-07-19T16:58:40.599Z,2.93
2018-07-19T17:01:08.912Z,3.70
2018-07-19T17:03:37.255Z,2.70
2018-07-19T17:06:05.566Z,3.10
2018-07-19T17:08:33.881Z,2.77
2018-07-19T17:11:02.188Z,2.67
2018-07-19T17:13:31.055Z,3.10
2018-07-19T17:15:59.388Z,3.70
2018-07-19T17:18:27.707Z,3.13
2018-07-19T17:20:56.036Z,3.20
2018-07-19T17:23:24.955Z,2.70
2018-07-19T17:25:53.273Z,2.90
2018-07-19T17:28:21.639Z,3.03
2018-07-19T17:30:50.251Z,3.00
2018-07-19T17:33:18.564Z,3.43
2018-07-19T17:35:46.875Z,3.13
2018-07-19T17:38:15.215Z,3.47
2018-07-19T17:40:43.534Z,2.93
2018-07-19T17:43:11.836Z,3.60
2018-07-19T17:45:40.183Z,2.83
2018-07-19T17:48:09.243Z,2.90
2018-07-19T17:50:37.583Z,4.10
2018-07-19T17:53:06.261Z,3.20
2018-07-19T17:55:34.584Z,3.33
2018-07-19T17:58:02.891Z,3.20
2018-07-19T18:00:31.208Z,3.07
2018-07-19T18:02:59.533Z,3.03
2018-07-19T18:05:27.851Z,3.40
2018-07-19T18:07:56.172Z,3.57
2018-07-19T18:10:24.477Z,2.90
2018-07-19T18:12:52.816Z,3.83
2018-07-19T18:15:21.124Z,3.37
2018-07-19T18:17:49.439Z,4.43
2018-07-19T18:20:17.788Z,3.10
2018-07-19T18:22:46.693Z,3.27
2018-07-19T18:25:15.672Z,3.43
2018-07-19T18:27:44.036Z,3.23
2018-07-19T18:30:12.379Z,3.90
2018-07-19T18:32:40.943Z,3.40
2018-07-19T18:35:09.273Z,4.63
2018-07-19T18:37:37.616Z,3.97
2018-07-19T18:40:05.939Z,3.37
2018-07-19T18:42:34.265Z,3.30
2018-07-19T18:45:03.339Z,3.47
2018-07-19T18:47:31.644Z,3.67
2018-07-19T18:49:59.944Z,2.90
2018-07-19T18:52:28.273Z,5.30
2018-07-19T18:54:56.713Z,4.20
2018-07-19T18:57:25.016Z,3.17
2018-07-19T18:59:53.343Z,3.70
2018-07-19T19:02:21.686Z,3.50
2018-07-19T19:04:49.997Z,3.50
2018-07-19T19:07:18.295Z,2.90
2018-07-19T19:09:46.607Z,3.23
2018-07-19T19:12:14.965Z,3.43
2018-07-19T19:14:43.303Z,2.70
2018-07-19T19:17:11.608Z,3.30
2018-07-19T19:19:39.912Z,3.83
2018-07-19T19:22:08.243Z,4.33
2018-07-19T19:24:36.559Z,3.40
2018-07-19T19:27:05.089Z,3.70
2018-07-19T19:29:33.948Z,3.37
2018-07-19T19:32:02.295Z,3.40
2018-07-19T19:34:30.645Z,3.60
2018-07-19T19:36:58.968Z,3.93
2018-07-19T19:39:27.284Z,3.83
2018-07-19T19:41:55.588Z,3.57
2018-07-19T19:44:23.927Z,3.90
2018-07-19T19:46:52.291Z,4.07
2018-07-19T19:49:20.626Z,4.00
2018-07-19T19:51:48.959Z,3.47
2018-07-19T19:54:17.383Z,4.07
2018-07-19T19:56:45.670Z,3.90
2018-07-19T19:59:14.276Z,4.70
2018-07-19T20:01:42.700Z,4.77
2018-07-19T20:04:11.663Z,4.40
2018-07-19T20:06:40.023Z,4.20
2018-07-19T20:09:09.709Z,4.13
2018-07-19T20:11:38.056Z,4.13
2018-07-19T20:14:06.427Z,4.10
2018-07-19T20:16:34.748Z,3.53
2018-07-19T20:19:03.213Z,4.33
2018-07-19T20:21:31.555Z,4.80
2018-07-19T20:24:00.688Z,5.07
2018-07-19T20:26:29.027Z,4.80
2018-07-19T20:28:59.438Z,4.47
2018-07-19T20:31:29.098Z,4.93
2018-07-19T20:33:58.136Z,3.90
2018-07-19T20:36:26.636Z,4.97
2018-07-19T20:38:55.743Z,4.43
2018-07-19T20:41:24.128Z,4.90
2018-07-19T20:43:52.874Z,5.40
2018-07-19T20:46:21.506Z,5.10
2018-07-19T20:48:50.278Z,4.97
2018-07-19T20:51:18.833Z,5.43
2018-07-19T20:53:48.305Z,5.40
2018-07-19T20:56:17.011Z,5.57
2018-07-19T20:58:45.711Z,5.33
2018-07-19T21:01:14.664Z,5.90
2018-07-19T21:03:43.528Z,5.10
2018-07-19T21:06:11.936Z,6.03
2018-07-19T21:08:40.512Z,5.13
2018-07-19T21:11:09.056Z,5.20
2018-07-19T21:13:37.634Z,5.17
2018-07-19T21:16:06.915Z,5.37
2018-07-19T21:18:35.617Z,8.07
2018-07-19T21:21:04.132Z,8.67
2018-07-19T21:23:32.440Z,8.33
2018-07-19T21:26:01.043Z,7.77
2018-07-19T21:28:29.720Z,7.70
2018-07-19T21:30:58.324Z,6.40
2018-07-19T21:33:26.871Z,6.70
2018-07-19T21:35:55.180Z,6.90
2018-07-19T21:38:23.505Z,6.53
2018-07-19T21:40:54.389Z,6.57
2018-07-19T21:43:22.897Z,6.60
2018-07-19T21:45:51.333Z,6.43
2018-07-19T21:48:19.919Z,6.60
2018-07-19T21:50:48.540Z,6.30
2018-07-19T21:53:17.879Z,6.93
2018-07-19T21:55:47.137Z,6.60
2018-07-19T21:58:15.796Z,7.03
2018-07-19T22:00:50.003Z,6.70
2018-07-19T22:03:18.783Z,7.20
2018-07-19T22:05:47.438Z,7.00
2018-07-19T22:08:16.058Z,5.40
2018-07-19T22:10:44.441Z,6.63
2018-07-19T22:13:12.777Z,7.37
2018-07-19T22:15:41.534Z,6.77
2018-07-19T22:18:10.156Z,6.13
2018-07-19T22:20:38.828Z,6.60
2018-07-19T22:23:07.234Z,6.17
2018-07-19T22:25:36.286Z,6.07
2018-07-19T22:28:05.080Z,5.90
2018-07-19T22:30:33.512Z,5.90
2018-07-19T22:33:01.914Z,6.97
2018-07-19T22:35:30.210Z,6.60
2018-07-19T22:37:58.524Z,6.33
2018-07-19T22:40:26.832Z,5.67
2018-07-19T22:42:55.190Z,6.80
2018-07-19T22:45:23.538Z,6.63
2018-07-19T22:47:51.847Z,7.20
2018-07-19T22:50:20.206Z,6.70
2018-07-19T22:52:48.554Z,7.13
2018-07-19T22:55:16.871Z,5.77
2018-07-19T22:57:45.195Z,6.17
2018-07-19T23:00:13.521Z,5.90
2018-07-19T23:02:41.828Z,6.80
2018-07-19T23:05:10.172Z,6.03
2018-07-19T23:07:38.600Z,5.60
2018-07-19T23:10:07.176Z,6.33
2018-07-19T23:12:35.501Z,6.17
2018-07-19T23:15:04.171Z,5.20
2018-07-19T23:17:32.488Z,5.37
2018-07-19T23:20:01.668Z,5.87
2018-07-19T23:22:29.985Z,5.93
2018-07-19T23:24:58.304Z,5.20
2018-07-19T23:27:26.624Z,5.57
2018-07-19T23:29:54.973Z,6.30
2018-07-19T23:32:23.331Z,6.23
2018-07-19T23:34:51.752Z,5.70
2018-07-19T23:37:23.319Z,7.00
2018-07-19T23:39:57.386Z,6.57
2018-07-19T23:42:29.989Z,5.67
2018-07-19T23:47:06.421Z,5.57
2018-07-19T23:49:35.136Z,5.90
2018-07-19T23:52:03.436Z,5.10
2018-07-19T23:54:31.771Z,4.73
2018-07-19T23:57:00.164Z,5.07
2018-07-19T23:59:28.583Z,5.10
